sensor_id;sensor_type;location;lat;lon;timestamp;P1;durP1;ratioP1;P2;durP2;ratioP2
68923;SDS011;55961;52.156;20.942;2023-05-10T00:00:34;10.57;;;5.00;;
68923;SDS011;55961;52.156;20.942;2023-05-10T00:03:09;10.07;;;4.70;;
68923;SDS011;55961;52.156;20.942;2023-05-10T00:05:35;10.90;;;4.70;;
68923;SDS011;55961;52.156;20.942;2023-05-10T00:08:01;11.60;;;4.55;;
68923;SDS011;55961;52.156;20.942;2023-05-10T00:10:27;10.27;;;4.40;;
68923;SDS011;55961;52.156;20.942;2023-05-10T00:12:53;12.38;;;5.35;;
68923;SDS011;55961;52.156;20.942;2023-05-10T00:15:18;12.27;;;4.43;;
68923;SDS011;55961;52.156;20.942;2023-05-10T00:17:45;9.40;;;3.73;;
68923;SDS011;55961;52.156;20.942;2023-05-10T00:20:10;11.30;;;4.05;;
68923;SDS011;55961;52.156;20.942;2023-05-10T00:22:37;9.65;;;3.95;;
68923;SDS011;55961;52.156;20.942;2023-05-10T00:25:02;10.43;;;3.73;;
68923;SDS011;55961;52.156;20.942;2023-05-10T00:27:29;9.95;;;4.03;;
68923;SDS011;55961;52.156;20.942;2023-05-10T00:29:55;11.93;;;3.65;;
68923;SDS011;55961;52.156;20.942;2023-05-10T00:32:21;12.87;;;4.30;;
68923;SDS011;55961;52.156;20.942;2023-05-10T00:34:46;11.23;;;4.15;;
68923;SDS011;55961;52.156;20.942;2023-05-10T00:37:12;10.55;;;4.00;;
68923;SDS011;55961;52.156;20.942;2023-05-10T00:39:38;9.20;;;4.43;;
68923;SDS011;55961;52.156;20.942;2023-05-10T00:42:04;9.55;;;3.90;;
68923;SDS011;55961;52.156;20.942;2023-05-10T00:44:30;9.73;;;3.85;;
68923;SDS011;55961;52.156;20.942;2023-05-10T00:46:57;11.65;;;4.20;;
68923;SDS011;55961;52.156;20.942;2023-05-10T00:49:23;9.17;;;4.00;;
68923;SDS011;55961;52.156;20.942;2023-05-10T00:51:49;8.38;;;3.63;;
68923;SDS011;55961;52.156;20.942;2023-05-10T00:54:15;13.13;;;3.85;;
68923;SDS011;55961;52.156;20.942;2023-05-10T00:56:42;8.50;;;3.80;;
68923;SDS011;55961;52.156;20.942;2023-05-10T00:59:14;8.98;;;3.60;;
68923;SDS011;55961;52.156;20.942;2023-05-10T01:01:46;9.10;;;3.70;;
68923;SDS011;55961;52.156;20.942;2023-05-10T01:04:12;8.98;;;3.90;;
68923;SDS011;55961;52.156;20.942;2023-05-10T01:06:40;9.90;;;5.07;;
68923;SDS011;55961;52.156;20.942;2023-05-10T01:09:06;8.82;;;3.80;;
68923;SDS011;55961;52.156;20.942;2023-05-10T01:11:33;7.88;;;3.45;;
68923;SDS011;55961;52.156;20.942;2023-05-10T01:14:00;11.60;;;3.50;;
68923;SDS011;55961;52.156;20.942;2023-05-10T01:16:27;8.52;;;3.55;;
68923;SDS011;55961;52.156;20.942;2023-05-10T01:18:57;9.32;;;3.75;;
68923;SDS011;55961;52.156;20.942;2023-05-10T01:21:33;8.65;;;4.10;;
68923;SDS011;55961;52.156;20.942;2023-05-10T01:24:19;9.80;;;3.67;;
68923;SDS011;55961;52.156;20.942;2023-05-10T01:35:26;9.30;;;3.75;;
68923;SDS011;55961;52.156;20.942;2023-05-10T01:38:15;7.97;;;3.45;;
68923;SDS011;55961;52.156;20.942;2023-05-10T01:43:43;9.32;;;3.83;;
68923;SDS011;55961;52.156;20.942;2023-05-10T01:46:20;9.00;;;3.53;;
68923;SDS011;55961;52.156;20.942;2023-05-10T01:48:55;8.48;;;3.90;;
68923;SDS011;55961;52.156;20.942;2023-05-10T01:51:24;10.65;;;4.03;;
68923;SDS011;55961;52.156;20.942;2023-05-10T01:53:54;9.00;;;4.20;;
68923;SDS011;55961;52.156;20.942;2023-05-10T01:56:26;9.88;;;3.97;;
68923;SDS011;55961;52.156;20.942;2023-05-10T01:58:53;10.63;;;4.00;;
68923;SDS011;55961;52.156;20.942;2023-05-10T02:01:21;9.63;;;4.22;;
68923;SDS011;55961;52.156;20.942;2023-05-10T02:03:49;11.15;;;4.30;;
68923;SDS011;55961;52.156;20.942;2023-05-10T02:06:16;8.03;;;4.00;;
68923;SDS011;55961;52.156;20.942;2023-05-10T02:08:47;9.38;;;4.03;;
68923;SDS011;55961;52.156;20.942;2023-05-10T02:11:15;7.57;;;3.40;;
68923;SDS011;55961;52.156;20.942;2023-05-10T02:13:43;8.85;;;4.00;;
68923;SDS011;55961;52.156;20.942;2023-05-10T02:16:12;7.95;;;3.88;;
68923;SDS011;55961;52.156;20.942;2023-05-10T02:18:39;9.07;;;4.00;;
68923;SDS011;55961;52.156;20.942;2023-05-10T02:21:06;10.32;;;4.22;;
68923;SDS011;55961;52.156;20.942;2023-05-10T02:23:34;8.65;;;3.97;;
68923;SDS011;55961;52.156;20.942;2023-05-10T02:26:01;9.27;;;4.18;;
68923;SDS011;55961;52.156;20.942;2023-05-10T02:28:28;7.10;;;3.75;;
68923;SDS011;55961;52.156;20.942;2023-05-10T02:30:55;8.57;;;3.90;;
68923;SDS011;55961;52.156;20.942;2023-05-10T02:33:22;10.70;;;3.70;;
68923;SDS011;55961;52.156;20.942;2023-05-10T02:35:48;12.50;;;4.60;;
68923;SDS011;55961;52.156;20.942;2023-05-10T02:38:16;10.93;;;3.80;;
68923;SDS011;55961;52.156;20.942;2023-05-10T02:40:45;8.32;;;4.47;;
68923;SDS011;55961;52.156;20.942;2023-05-10T02:43:13;10.17;;;4.20;;
68923;SDS011;55961;52.156;20.942;2023-05-10T02:45:41;11.20;;;4.15;;
68923;SDS011;55961;52.156;20.942;2023-05-10T02:48:08;10.15;;;4.22;;
68923;SDS011;55961;52.156;20.942;2023-05-10T02:50:34;8.18;;;4.05;;
68923;SDS011;55961;52.156;20.942;2023-05-10T02:53:10;11.43;;;4.00;;
68923;SDS011;55961;52.156;20.942;2023-05-10T02:55:40;12.60;;;3.90;;
68923;SDS011;55961;52.156;20.942;2023-05-10T02:58:08;10.73;;;3.80;;
68923;SDS011;55961;52.156;20.942;2023-05-10T03:00:35;10.63;;;4.05;;
68923;SDS011;55961;52.156;20.942;2023-05-10T03:03:01;10.15;;;3.78;;
68923;SDS011;55961;52.156;20.942;2023-05-10T03:05:27;10.07;;;3.93;;
68923;SDS011;55961;52.156;20.942;2023-05-10T03:07:53;10.30;;;3.35;;
68923;SDS011;55961;52.156;20.942;2023-05-10T03:10:20;8.05;;;4.07;;
68923;SDS011;55961;52.156;20.942;2023-05-10T03:15:33;8.60;;;3.40;;
68923;SDS011;55961;52.156;20.942;2023-05-10T03:18:16;9.23;;;3.63;;
68923;SDS011;55961;52.156;20.942;2023-05-10T03:20:48;8.77;;;3.80;;
68923;SDS011;55961;52.156;20.942;2023-05-10T03:26:07;9.27;;;3.58;;
68923;SDS011;55961;52.156;20.942;2023-05-10T03:28:33;8.68;;;3.40;;
68923;SDS011;55961;52.156;20.942;2023-05-10T03:31:00;10.73;;;3.93;;
68923;SDS011;55961;52.156;20.942;2023-05-10T03:33:28;8.60;;;3.67;;
68923;SDS011;55961;52.156;20.942;2023-05-10T03:35:54;7.97;;;3.67;;
68923;SDS011;55961;52.156;20.942;2023-05-10T03:38:20;9.57;;;3.30;;
68923;SDS011;55961;52.156;20.942;2023-05-10T03:40:46;9.33;;;3.67;;
68923;SDS011;55961;52.156;20.942;2023-05-10T03:43:12;8.63;;;4.07;;
68923;SDS011;55961;52.156;20.942;2023-05-10T03:45:38;13.10;;;4.28;;
68923;SDS011;55961;52.156;20.942;2023-05-10T03:48:04;10.23;;;4.18;;
68923;SDS011;55961;52.156;20.942;2023-05-10T03:50:30;7.77;;;3.73;;
68923;SDS011;55961;52.156;20.942;2023-05-10T03:52:56;9.55;;;4.50;;
68923;SDS011;55961;52.156;20.942;2023-05-10T03:55:23;10.80;;;4.20;;
68923;SDS011;55961;52.156;20.942;2023-05-10T03:57:49;10.27;;;4.65;;
68923;SDS011;55961;52.156;20.942;2023-05-10T04:00:15;9.90;;;4.70;;
68923;SDS011;55961;52.156;20.942;2023-05-10T04:02:41;10.75;;;4.53;;
68923;SDS011;55961;52.156;20.942;2023-05-10T04:05:07;8.60;;;4.07;;
68923;SDS011;55961;52.156;20.942;2023-05-10T04:07:33;9.05;;;4.05;;
68923;SDS011;55961;52.156;20.942;2023-05-10T04:09:59;13.57;;;4.10;;
68923;SDS011;55961;52.156;20.942;2023-05-10T04:12:25;8.60;;;3.60;;
68923;SDS011;55961;52.156;20.942;2023-05-10T04:14:51;9.98;;;3.30;;
68923;SDS011;55961;52.156;20.942;2023-05-10T04:17:17;9.33;;;3.83;;
68923;SDS011;55961;52.156;20.942;2023-05-10T04:19:43;9.52;;;4.13;;
68923;SDS011;55961;52.156;20.942;2023-05-10T04:22:09;8.55;;;3.40;;
68923;SDS011;55961;52.156;20.942;2023-05-10T04:24:35;8.52;;;3.55;;
68923;SDS011;55961;52.156;20.942;2023-05-10T04:27:01;8.80;;;3.07;;
68923;SDS011;55961;52.156;20.942;2023-05-10T04:29:27;8.07;;;4.07;;
68923;SDS011;55961;52.156;20.942;2023-05-10T04:31:53;10.82;;;3.97;;
68923;SDS011;55961;52.156;20.942;2023-05-10T04:34:20;7.72;;;3.55;;
68923;SDS011;55961;52.156;20.942;2023-05-10T04:36:46;7.77;;;3.63;;
68923;SDS011;55961;52.156;20.942;2023-05-10T04:39:12;10.18;;;3.88;;
68923;SDS011;55961;52.156;20.942;2023-05-10T04:41:39;8.50;;;3.40;;
68923;SDS011;55961;52.156;20.942;2023-05-10T04:44:05;11.83;;;3.80;;
68923;SDS011;55961;52.156;20.942;2023-05-10T04:46:31;7.35;;;3.72;;
68923;SDS011;55961;52.156;20.942;2023-05-10T04:48:57;9.70;;;4.07;;
68923;SDS011;55961;52.156;20.942;2023-05-10T04:51:23;7.32;;;3.40;;
68923;SDS011;55961;52.156;20.942;2023-05-10T04:53:49;10.70;;;3.70;;
68923;SDS011;55961;52.156;20.942;2023-05-10T04:56:15;7.65;;;3.25;;
68923;SDS011;55961;52.156;20.942;2023-05-10T04:58:41;8.70;;;3.42;;
68923;SDS011;55961;52.156;20.942;2023-05-10T05:01:08;11.90;;;3.70;;
68923;SDS011;55961;52.156;20.942;2023-05-10T05:03:35;9.67;;;3.73;;
68923;SDS011;55961;52.156;20.942;2023-05-10T05:06:02;11.05;;;3.63;;
68923;SDS011;55961;52.156;20.942;2023-05-10T05:08:28;8.57;;;3.10;;
68923;SDS011;55961;52.156;20.942;2023-05-10T05:10:54;11.40;;;4.10;;
68923;SDS011;55961;52.156;20.942;2023-05-10T05:13:20;9.65;;;4.20;;
68923;SDS011;55961;52.156;20.942;2023-05-10T05:15:46;12.57;;;5.33;;
68923;SDS011;55961;52.156;20.942;2023-05-10T05:18:12;11.85;;;5.47;;
68923;SDS011;55961;52.156;20.942;2023-05-10T05:20:38;13.35;;;5.65;;
68923;SDS011;55961;52.156;20.942;2023-05-10T05:23:04;9.83;;;4.47;;
68923;SDS011;55961;52.156;20.942;2023-05-10T05:25:30;10.25;;;4.15;;
68923;SDS011;55961;52.156;20.942;2023-05-10T05:27:56;9.90;;;3.63;;
68923;SDS011;55961;52.156;20.942;2023-05-10T05:30:22;10.00;;;3.58;;
68923;SDS011;55961;52.156;20.942;2023-05-10T05:32:48;8.33;;;4.00;;
68923;SDS011;55961;52.156;20.942;2023-05-10T05:35:14;7.30;;;3.60;;
68923;SDS011;55961;52.156;20.942;2023-05-10T05:37:40;7.53;;;3.33;;
68923;SDS011;55961;52.156;20.942;2023-05-10T05:40:06;9.20;;;3.87;;
68923;SDS011;55961;52.156;20.942;2023-05-10T05:42:32;8.98;;;3.80;;
68923;SDS011;55961;52.156;20.942;2023-05-10T05:44:58;9.13;;;3.42;;
68923;SDS011;55961;52.156;20.942;2023-05-10T05:47:24;8.07;;;3.60;;
68923;SDS011;55961;52.156;20.942;2023-05-10T05:49:50;8.40;;;3.00;;
68923;SDS011;55961;52.156;20.942;2023-05-10T05:52:16;10.50;;;3.03;;
68923;SDS011;55961;52.156;20.942;2023-05-10T05:54:42;8.80;;;2.90;;
68923;SDS011;55961;52.156;20.942;2023-05-10T05:57:09;8.48;;;2.92;;
68923;SDS011;55961;52.156;20.942;2023-05-10T05:59:35;6.87;;;2.77;;
68923;SDS011;55961;52.156;20.942;2023-05-10T06:02:01;9.75;;;3.03;;
68923;SDS011;55961;52.156;20.942;2023-05-10T06:04:27;8.10;;;2.55;;
68923;SDS011;55961;52.156;20.942;2023-05-10T06:06:53;5.45;;;2.25;;
68923;SDS011;55961;52.156;20.942;2023-05-10T06:09:18;10.20;;;3.20;;
68923;SDS011;55961;52.156;20.942;2023-05-10T06:11:44;6.13;;;2.97;;
68923;SDS011;55961;52.156;20.942;2023-05-10T06:14:10;7.10;;;2.67;;
68923;SDS011;55961;52.156;20.942;2023-05-10T06:16:36;6.43;;;2.60;;
68923;SDS011;55961;52.156;20.942;2023-05-10T06:19:02;6.65;;;2.55;;
68923;SDS011;55961;52.156;20.942;2023-05-10T06:21:28;6.80;;;2.58;;
68923;SDS011;55961;52.156;20.942;2023-05-10T06:23:55;7.30;;;2.65;;
68923;SDS011;55961;52.156;20.942;2023-05-10T06:26:21;7.33;;;2.53;;
68923;SDS011;55961;52.156;20.942;2023-05-10T06:28:47;7.22;;;2.67;;
68923;SDS011;55961;52.156;20.942;2023-05-10T06:31:13;7.75;;;2.58;;
68923;SDS011;55961;52.156;20.942;2023-05-10T06:33:39;10.97;;;3.10;;
68923;SDS011;55961;52.156;20.942;2023-05-10T06:36:05;7.88;;;2.72;;
68923;SDS011;55961;52.156;20.942;2023-05-10T06:38:31;6.55;;;2.70;;
68923;SDS011;55961;52.156;20.942;2023-05-10T06:40:57;7.05;;;2.35;;
68923;SDS011;55961;52.156;20.942;2023-05-10T06:43:23;12.37;;;3.27;;
68923;SDS011;55961;52.156;20.942;2023-05-10T06:45:50;6.65;;;2.58;;
68923;SDS011;55961;52.156;20.942;2023-05-10T06:48:16;9.05;;;2.70;;
68923;SDS011;55961;52.156;20.942;2023-05-10T06:50:42;6.13;;;2.28;;
68923;SDS011;55961;52.156;20.942;2023-05-10T06:53:09;5.93;;;2.53;;
68923;SDS011;55961;52.156;20.942;2023-05-10T06:55:35;6.93;;;2.60;;
68923;SDS011;55961;52.156;20.942;2023-05-10T06:58:01;5.38;;;2.45;;
68923;SDS011;55961;52.156;20.942;2023-05-10T07:00:27;6.85;;;2.30;;
68923;SDS011;55961;52.156;20.942;2023-05-10T07:02:53;7.20;;;2.30;;
68923;SDS011;55961;52.156;20.942;2023-05-10T07:05:19;7.68;;;2.47;;
68923;SDS011;55961;52.156;20.942;2023-05-10T07:07:45;8.38;;;2.20;;
68923;SDS011;55961;52.156;20.942;2023-05-10T07:10:11;5.18;;;1.73;;
68923;SDS011;55961;52.156;20.942;2023-05-10T07:12:37;7.70;;;2.07;;
68923;SDS011;55961;52.156;20.942;2023-05-10T07:15:03;5.25;;;2.00;;
68923;SDS011;55961;52.156;20.942;2023-05-10T07:17:30;6.53;;;1.95;;
68923;SDS011;55961;52.156;20.942;2023-05-10T07:19:56;6.05;;;2.30;;
68923;SDS011;55961;52.156;20.942;2023-05-10T07:22:21;4.33;;;1.60;;
68923;SDS011;55961;52.156;20.942;2023-05-10T07:24:47;4.45;;;1.83;;
68923;SDS011;55961;52.156;20.942;2023-05-10T07:27:13;5.75;;;1.88;;
68923;SDS011;55961;52.156;20.942;2023-05-10T07:29:39;4.73;;;1.80;;
68923;SDS011;55961;52.156;20.942;2023-05-10T07:32:05;4.68;;;1.70;;
68923;SDS011;55961;52.156;20.942;2023-05-10T07:34:31;4.82;;;1.90;;
68923;SDS011;55961;52.156;20.942;2023-05-10T07:36:58;4.53;;;1.50;;
68923;SDS011;55961;52.156;20.942;2023-05-10T07:39:24;6.10;;;2.00;;
68923;SDS011;55961;52.156;20.942;2023-05-10T07:41:51;5.72;;;2.10;;
68923;SDS011;55961;52.156;20.942;2023-05-10T07:44:17;5.30;;;1.67;;
68923;SDS011;55961;52.156;20.942;2023-05-10T07:46:45;7.03;;;2.20;;
68923;SDS011;55961;52.156;20.942;2023-05-10T07:49:12;7.35;;;1.95;;
68923;SDS011;55961;52.156;20.942;2023-05-10T07:51:38;5.40;;;2.20;;
68923;SDS011;55961;52.156;20.942;2023-05-10T07:54:04;5.15;;;1.40;;
68923;SDS011;55961;52.156;20.942;2023-05-10T07:56:32;6.95;;;1.83;;
68923;SDS011;55961;52.156;20.942;2023-05-10T07:58:58;6.43;;;1.75;;
68923;SDS011;55961;52.156;20.942;2023-05-10T08:01:25;5.77;;;2.37;;
68923;SDS011;55961;52.156;20.942;2023-05-10T08:03:52;5.28;;;1.95;;
68923;SDS011;55961;52.156;20.942;2023-05-10T08:06:18;5.40;;;1.42;;
68923;SDS011;55961;52.156;20.942;2023-05-10T08:08:46;9.43;;;1.83;;
68923;SDS011;55961;52.156;20.942;2023-05-10T08:11:15;7.93;;;1.30;;
68923;SDS011;55961;52.156;20.942;2023-05-10T08:13:46;5.97;;;1.67;;
68923;SDS011;55961;52.156;20.942;2023-05-10T08:16:12;9.10;;;2.13;;
68923;SDS011;55961;52.156;20.942;2023-05-10T08:18:38;8.13;;;2.10;;
68923;SDS011;55961;52.156;20.942;2023-05-10T08:21:05;7.53;;;2.03;;
68923;SDS011;55961;52.156;20.942;2023-05-10T08:23:31;4.18;;;1.60;;
68923;SDS011;55961;52.156;20.942;2023-05-10T08:25:57;8.27;;;1.50;;
68923;SDS011;55961;52.156;20.942;2023-05-10T08:28:23;4.38;;;1.63;;
68923;SDS011;55961;52.156;20.942;2023-05-10T08:30:49;4.82;;;2.42;;
68923;SDS011;55961;52.156;20.942;2023-05-10T08:33:17;5.30;;;2.00;;
68923;SDS011;55961;52.156;20.942;2023-05-10T08:35:43;5.10;;;1.70;;
68923;SDS011;55961;52.156;20.942;2023-05-10T08:38:09;5.95;;;2.20;;
68923;SDS011;55961;52.156;20.942;2023-05-10T08:40:36;6.75;;;2.13;;
68923;SDS011;55961;52.156;20.942;2023-05-10T08:43:07;7.88;;;2.47;;
68923;SDS011;55961;52.156;20.942;2023-05-10T08:45:37;7.40;;;2.00;;
68923;SDS011;55961;52.156;20.942;2023-05-10T08:48:08;7.28;;;2.30;;
68923;SDS011;55961;52.156;20.942;2023-05-10T08:50:35;6.38;;;2.30;;
68923;SDS011;55961;52.156;20.942;2023-05-10T08:53:03;7.32;;;2.40;;
68923;SDS011;55961;52.156;20.942;2023-05-10T08:55:32;6.55;;;1.98;;
68923;SDS011;55961;52.156;20.942;2023-05-10T08:58:04;5.83;;;1.97;;
68923;SDS011;55961;52.156;20.942;2023-05-10T09:00:31;6.55;;;2.40;;
68923;SDS011;55961;52.156;20.942;2023-05-10T09:02:58;5.10;;;2.28;;
68923;SDS011;55961;52.156;20.942;2023-05-10T09:05:24;6.32;;;1.77;;
68923;SDS011;55961;52.156;20.942;2023-05-10T09:07:51;6.28;;;2.13;;
68923;SDS011;55961;52.156;20.942;2023-05-10T09:10:17;4.47;;;1.93;;
68923;SDS011;55961;52.156;20.942;2023-05-10T09:12:43;6.25;;;2.10;;
68923;SDS011;55961;52.156;20.942;2023-05-10T09:15:10;5.65;;;1.90;;
68923;SDS011;55961;52.156;20.942;2023-05-10T09:17:37;5.43;;;1.92;;
68923;SDS011;55961;52.156;20.942;2023-05-10T09:20:04;4.93;;;2.13;;
68923;SDS011;55961;52.156;20.942;2023-05-10T09:22:31;5.77;;;2.00;;
68923;SDS011;55961;52.156;20.942;2023-05-10T09:25:05;7.55;;;2.00;;
68923;SDS011;55961;52.156;20.942;2023-05-10T09:27:32;6.55;;;2.70;;
68923;SDS011;55961;52.156;20.942;2023-05-10T09:29:58;4.13;;;1.80;;
68923;SDS011;55961;52.156;20.942;2023-05-10T09:32:38;4.63;;;2.05;;
68923;SDS011;55961;52.156;20.942;2023-05-10T09:35:11;5.93;;;1.57;;
68923;SDS011;55961;52.156;20.942;2023-05-10T09:37:39;11.43;;;2.15;;
68923;SDS011;55961;52.156;20.942;2023-05-10T09:40:18;4.85;;;1.98;;
68923;SDS011;55961;52.156;20.942;2023-05-10T09:45:17;9.55;;;2.08;;
68923;SDS011;55961;52.156;20.942;2023-05-10T09:47:43;6.43;;;2.17;;
68923;SDS011;55961;52.156;20.942;2023-05-10T09:50:11;6.63;;;1.80;;
68923;SDS011;55961;52.156;20.942;2023-05-10T09:52:47;11.75;;;2.30;;
68923;SDS011;55961;52.156;20.942;2023-05-10T09:55:13;5.93;;;2.03;;
68923;SDS011;55961;52.156;20.942;2023-05-10T09:57:39;8.43;;;2.03;;
68923;SDS011;55961;52.156;20.942;2023-05-10T10:00:06;6.63;;;1.80;;
68923;SDS011;55961;52.156;20.942;2023-05-10T10:02:32;4.38;;;1.95;;
68923;SDS011;55961;52.156;20.942;2023-05-10T10:05:02;4.78;;;2.00;;
68923;SDS011;55961;52.156;20.942;2023-05-10T10:07:29;4.78;;;2.05;;
68923;SDS011;55961;52.156;20.942;2023-05-10T10:09:54;6.37;;;2.10;;
68923;SDS011;55961;52.156;20.942;2023-05-10T10:12:21;3.50;;;1.80;;
68923;SDS011;55961;52.156;20.942;2023-05-10T10:14:47;5.20;;;2.13;;
68923;SDS011;55961;52.156;20.942;2023-05-10T10:17:14;6.30;;;2.10;;
68923;SDS011;55961;52.156;20.942;2023-05-10T10:19:41;3.83;;;1.77;;
68923;SDS011;55961;52.156;20.942;2023-05-10T10:22:07;5.75;;;2.25;;
68923;SDS011;55961;52.156;20.942;2023-05-10T10:24:33;14.40;;;2.67;;
68923;SDS011;55961;52.156;20.942;2023-05-10T10:27:01;9.77;;;2.38;;
68923;SDS011;55961;52.156;20.942;2023-05-10T10:29:39;5.45;;;2.20;;
68923;SDS011;55961;52.156;20.942;2023-05-10T10:34:55;5.43;;;2.22;;
68923;SDS011;55961;52.156;20.942;2023-05-10T10:37:21;5.07;;;2.10;;
68923;SDS011;55961;52.156;20.942;2023-05-10T10:39:50;7.17;;;2.23;;
68923;SDS011;55961;52.156;20.942;2023-05-10T10:42:43;6.63;;;1.70;;
68923;SDS011;55961;52.156;20.942;2023-05-10T10:45:12;5.82;;;2.10;;
68923;SDS011;55961;52.156;20.942;2023-05-10T10:47:38;7.75;;;2.08;;
68923;SDS011;55961;52.156;20.942;2023-05-10T10:50:05;3.97;;;1.87;;
68923;SDS011;55961;52.156;20.942;2023-05-10T10:52:37;9.07;;;2.30;;
68923;SDS011;55961;52.156;20.942;2023-05-10T11:07:55;6.38;;;2.00;;
68923;SDS011;55961;52.156;20.942;2023-05-10T11:10:23;6.28;;;2.20;;
68923;SDS011;55961;52.156;20.942;2023-05-10T11:12:55;5.90;;;1.75;;
68923;SDS011;55961;52.156;20.942;2023-05-10T11:15:29;4.63;;;1.80;;
68923;SDS011;55961;52.156;20.942;2023-05-10T11:17:58;5.72;;;1.90;;
68923;SDS011;55961;52.156;20.942;2023-05-10T11:20:28;4.70;;;2.10;;
68923;SDS011;55961;52.156;20.942;2023-05-10T11:23:12;5.80;;;1.70;;
68923;SDS011;55961;52.156;20.942;2023-05-10T11:25:44;5.97;;;2.30;;
68923;SDS011;55961;52.156;20.942;2023-05-10T11:28:11;5.37;;;2.50;;
68923;SDS011;55961;52.156;20.942;2023-05-10T11:30:38;6.38;;;2.28;;
68923;SDS011;55961;52.156;20.942;2023-05-10T11:33:06;4.60;;;2.03;;
68923;SDS011;55961;52.156;20.942;2023-05-10T11:35:39;5.40;;;2.15;;
68923;SDS011;55961;52.156;20.942;2023-05-10T11:38:09;4.30;;;2.30;;
68923;SDS011;55961;52.156;20.942;2023-05-10T11:40:36;6.97;;;2.00;;
68923;SDS011;55961;52.156;20.942;2023-05-10T11:43:03;7.70;;;2.35;;
68923;SDS011;55961;52.156;20.942;2023-05-10T11:45:32;5.35;;;2.45;;
68923;SDS011;55961;52.156;20.942;2023-05-10T11:47:59;8.05;;;2.30;;
68923;SDS011;55961;52.156;20.942;2023-05-10T11:50:25;8.07;;;2.30;;
68923;SDS011;55961;52.156;20.942;2023-05-10T11:52:52;6.67;;;1.77;;
68923;SDS011;55961;52.156;20.942;2023-05-10T11:55:18;5.05;;;2.25;;
68923;SDS011;55961;52.156;20.942;2023-05-10T11:57:45;4.68;;;1.90;;
68923;SDS011;55961;52.156;20.942;2023-05-10T12:00:12;7.00;;;1.80;;
68923;SDS011;55961;52.156;20.942;2023-05-10T12:02:38;5.03;;;1.88;;
68923;SDS011;55961;52.156;20.942;2023-05-10T12:05:05;7.20;;;2.10;;
68923;SDS011;55961;52.156;20.942;2023-05-10T12:07:32;8.30;;;2.05;;
68923;SDS011;55961;52.156;20.942;2023-05-10T12:10:02;7.43;;;2.42;;
68923;SDS011;55961;52.156;20.942;2023-05-10T12:12:39;7.07;;;1.92;;
68923;SDS011;55961;52.156;20.942;2023-05-10T12:15:10;6.10;;;2.13;;
68923;SDS011;55961;52.156;20.942;2023-05-10T12:17:38;5.43;;;1.90;;
68923;SDS011;55961;52.156;20.942;2023-05-10T12:22:48;6.10;;;2.67;;
68923;SDS011;55961;52.156;20.942;2023-05-10T12:25:19;5.50;;;2.35;;
68923;SDS011;55961;52.156;20.942;2023-05-10T12:27:56;5.10;;;1.83;;
68923;SDS011;55961;52.156;20.942;2023-05-10T12:30:26;6.20;;;2.30;;
68923;SDS011;55961;52.156;20.942;2023-05-10T12:32:54;7.28;;;2.33;;
68923;SDS011;55961;52.156;20.942;2023-05-10T12:35:25;6.38;;;2.28;;
68923;SDS011;55961;52.156;20.942;2023-05-10T12:37:51;4.97;;;1.90;;
68923;SDS011;55961;52.156;20.942;2023-05-10T12:40:17;5.93;;;1.70;;
68923;SDS011;55961;52.156;20.942;2023-05-10T12:42:43;7.53;;;1.90;;
68923;SDS011;55961;52.156;20.942;2023-05-10T12:45:11;4.65;;;1.77;;
68923;SDS011;55961;52.156;20.942;2023-05-10T12:47:38;9.60;;;2.30;;
68923;SDS011;55961;52.156;20.942;2023-05-10T12:50:04;6.43;;;2.00;;
68923;SDS011;55961;52.156;20.942;2023-05-10T12:52:30;6.03;;;2.03;;
68923;SDS011;55961;52.156;20.942;2023-05-10T12:54:58;8.02;;;2.55;;
68923;SDS011;55961;52.156;20.942;2023-05-10T12:57:25;5.60;;;2.03;;
68923;SDS011;55961;52.156;20.942;2023-05-10T12:59:51;5.25;;;2.17;;
68923;SDS011;55961;52.156;20.942;2023-05-10T13:02:17;4.83;;;1.67;;
68923;SDS011;55961;52.156;20.942;2023-05-10T13:04:43;6.60;;;2.40;;
68923;SDS011;55961;52.156;20.942;2023-05-10T13:07:11;5.50;;;1.85;;
68923;SDS011;55961;52.156;20.942;2023-05-10T13:09:37;4.70;;;2.03;;
68923;SDS011;55961;52.156;20.942;2023-05-10T13:12:03;7.10;;;2.30;;
68923;SDS011;55961;52.156;20.942;2023-05-10T13:14:29;8.53;;;2.73;;
68923;SDS011;55961;52.156;20.942;2023-05-10T13:16:56;5.70;;;2.10;;
68923;SDS011;55961;52.156;20.942;2023-05-10T13:19:22;5.07;;;2.13;;
68923;SDS011;55961;52.156;20.942;2023-05-10T13:21:48;5.20;;;2.28;;
68923;SDS011;55961;52.156;20.942;2023-05-10T13:24:14;5.57;;;2.00;;
68923;SDS011;55961;52.156;20.942;2023-05-10T13:26:40;4.55;;;2.10;;
68923;SDS011;55961;52.156;20.942;2023-05-10T13:29:06;4.55;;;1.60;;
68923;SDS011;55961;52.156;20.942;2023-05-10T13:31:33;5.37;;;1.87;;
68923;SDS011;55961;52.156;20.942;2023-05-10T13:33:59;5.65;;;1.83;;
68923;SDS011;55961;52.156;20.942;2023-05-10T13:36:25;6.20;;;1.80;;
68923;SDS011;55961;52.156;20.942;2023-05-10T13:38:51;4.45;;;1.75;;
68923;SDS011;55961;52.156;20.942;2023-05-10T13:41:17;5.20;;;1.88;;
68923;SDS011;55961;52.156;20.942;2023-05-10T13:43:43;5.03;;;1.83;;
68923;SDS011;55961;52.156;20.942;2023-05-10T13:46:09;8.40;;;2.40;;
68923;SDS011;55961;52.156;20.942;2023-05-10T13:48:35;5.90;;;2.10;;
68923;SDS011;55961;52.156;20.942;2023-05-10T13:51:04;4.22;;;1.67;;
68923;SDS011;55961;52.156;20.942;2023-05-10T13:53:30;6.57;;;2.00;;
68923;SDS011;55961;52.156;20.942;2023-05-10T13:55:56;4.85;;;1.80;;
68923;SDS011;55961;52.156;20.942;2023-05-10T13:58:22;3.90;;;1.88;;
68923;SDS011;55961;52.156;20.942;2023-05-10T14:00:49;6.03;;;1.92;;
68923;SDS011;55961;52.156;20.942;2023-05-10T14:03:14;6.33;;;2.27;;
68923;SDS011;55961;52.156;20.942;2023-05-10T14:05:40;5.65;;;2.15;;
68923;SDS011;55961;52.156;20.942;2023-05-10T14:08:06;5.93;;;1.98;;
68923;SDS011;55961;52.156;20.942;2023-05-10T14:10:34;7.30;;;2.03;;
68923;SDS011;55961;52.156;20.942;2023-05-10T14:13:00;3.67;;;1.63;;
68923;SDS011;55961;52.156;20.942;2023-05-10T14:15:26;5.68;;;2.13;;
68923;SDS011;55961;52.156;20.942;2023-05-10T14:17:52;5.87;;;1.80;;
68923;SDS011;55961;52.156;20.942;2023-05-10T14:20:18;5.55;;;1.77;;
68923;SDS011;55961;52.156;20.942;2023-05-10T14:22:44;5.53;;;1.73;;
68923;SDS011;55961;52.156;20.942;2023-05-10T14:25:10;5.85;;;2.15;;
68923;SDS011;55961;52.156;20.942;2023-05-10T14:27:36;5.77;;;1.90;;
68923;SDS011;55961;52.156;20.942;2023-05-10T14:30:02;7.90;;;2.20;;
68923;SDS011;55961;52.156;20.942;2023-05-10T14:32:28;4.35;;;2.22;;
68923;SDS011;55961;52.156;20.942;2023-05-10T14:34:54;7.53;;;2.28;;
68923;SDS011;55961;52.156;20.942;2023-05-10T14:37:20;7.18;;;2.03;;
68923;SDS011;55961;52.156;20.942;2023-05-10T14:39:47;5.77;;;2.10;;
68923;SDS011;55961;52.156;20.942;2023-05-10T14:42:12;8.02;;;2.15;;
68923;SDS011;55961;52.156;20.942;2023-05-10T14:44:38;4.90;;;1.90;;
68923;SDS011;55961;52.156;20.942;2023-05-10T14:47:04;6.50;;;2.00;;
68923;SDS011;55961;52.156;20.942;2023-05-10T14:49:31;5.73;;;2.20;;
68923;SDS011;55961;52.156;20.942;2023-05-10T14:51:56;6.72;;;2.00;;
68923;SDS011;55961;52.156;20.942;2023-05-10T14:54:22;3.83;;;1.80;;
68923;SDS011;55961;52.156;20.942;2023-05-10T14:56:48;7.17;;;2.13;;
68923;SDS011;55961;52.156;20.942;2023-05-10T14:59:15;4.10;;;1.90;;
68923;SDS011;55961;52.156;20.942;2023-05-10T15:01:41;4.70;;;1.83;;
68923;SDS011;55961;52.156;20.942;2023-05-10T15:04:07;5.22;;;2.03;;
68923;SDS011;55961;52.156;20.942;2023-05-10T15:06:33;5.50;;;1.90;;
68923;SDS011;55961;52.156;20.942;2023-05-10T15:09:01;4.63;;;1.85;;
68923;SDS011;55961;52.156;20.942;2023-05-10T15:11:31;6.18;;;2.25;;